Tiptonville, TN

11:37 AM CDT on July 25, 2016 (GMT -0500)
Reelfoot Lake Cabins Project | | Change Station

Elev 279 ft 36.35 °N, 89.41 °W | Updated 35 seconds ago

Partly Cloudy
Partly Cloudy
92.6 °F
Feels Like 113 °F
N
8.3
Wind Variable Wind from South

Today
High -- | Low -- °F
--% Chance of Precip.
Yesterday
High -- | Low -- °F
Precip. -- in
Pressure 30.02 in
Visibility 10.0 miles
Clouds Few 3800 ft
Heat Index 113 °F
Dew Point 81 °F
Humidity 69%
Rainfall in
Snow Depth Not available.
5:59 AM 8:09 PM
Waning Gibbous, 64% visible
METAR KUCY 251615Z AUTO 24005KT 10SM FEW038 31/26 A3002 RMK
Pressure 30.02 in
Visibility 10.0 miles
Clouds Few 3800 ft
Heat Index 113 °F
Dew Point 81 °F
Humidity 69%
Rainfall in
Snow Depth Not available.
5:59 AM 8:09 PM
Waning Gibbous, 64% visible
METAR KUCY 251615Z AUTO 24005KT 10SM FEW038 31/26 A3002 RMK
Record highs are possible for parts of the Northeast Monday and Tuesday, as parts of the central U.S. take a little breather from the worst of summer's dog day heat.

Expansive high pressure in the upper atmosphere will focus on parts of the East and West this week, sending heat indices well into the triple digits from the Mid-Atlantic states into the South.

10-Day Weather Forecast

Almanac

Astronomy

Jul. 25, 2016 Rise Set
Actual Time
Civil Twilight
Nautical Twilight
Astronomical Twilight
Moon
Length of Visible Light
Length of Day
Tomorrow will be .
, % of the Moon is Illuminated

Today's Extremes

State Highs State Lows

Community

WunderPhotos

Upload Photos

1,927,345 photos uploaded!

WunderBlog® & News

Nearby

Air Quality

  Air Quality AQ Index Pollutant
Not available.

Snow Depth

Station Depth Elevation

Earthquake Activity

City Distance Mag. Time & Date
Minimum magnitude displayed is 2.5.

Coastal Water Temperatures

Place Temperature

Stations

Nearby Weather Stations

Station Location Temp. Windchill Dew Point Humidity Wind Precip. Elev Updated Type
                   

Watches & Warnings

There are currently no watches in effect.